createdAt,value
2023-07-18T00:04:20.268Z,4.77
2023-07-18T00:09:27.765Z,5.10
2023-07-18T00:14:35.163Z,5.23
2023-07-18T00:19:42.622Z,5.20
2023-07-18T00:24:49.699Z,5.00
2023-07-18T00:29:59.796Z,4.70
2023-07-18T00:35:09.235Z,4.60
2023-07-18T00:40:18.703Z,5.37
2023-07-18T00:45:25.758Z,5.20
2023-07-18T00:50:32.653Z,5.50
2023-07-18T00:55:41.075Z,5.53
2023-07-18T01:00:48.183Z,5.30
2023-07-18T01:05:56.833Z,5.40
2023-07-18T01:11:04.084Z,5.00
2023-07-18T01:16:12.089Z,5.43
2023-07-18T01:21:24.595Z,5.43
2023-07-18T01:26:32.266Z,5.10
2023-07-18T01:31:39.372Z,5.10
2023-07-18T01:36:46.818Z,5.47
2023-07-18T01:41:53.831Z,5.60
2023-07-18T01:47:00.835Z,5.47
2023-07-18T01:52:09.235Z,5.10
2023-07-18T01:57:15.962Z,5.30
2023-07-18T02:02:23.321Z,5.50
2023-07-18T02:07:30.683Z,5.10
2023-07-18T02:12:38.194Z,5.10
2023-07-18T02:17:46.236Z,5.37
2023-07-18T02:22:53.769Z,5.37
2023-07-18T02:28:00.577Z,5.63
2023-07-18T02:33:08.681Z,5.10
2023-07-18T02:38:15.831Z,5.43
2023-07-18T02:43:23.066Z,5.23
2023-07-18T02:48:30.058Z,4.93
2023-07-18T02:53:37.083Z,4.90
2023-07-18T02:58:44.037Z,5.07
2023-07-18T03:03:51.264Z,5.10
2023-07-18T03:08:59.034Z,5.20
2023-07-18T03:14:07.826Z,5.00
2023-07-18T03:19:16.610Z,5.43
2023-07-18T03:24:23.287Z,5.30
2023-07-18T03:29:30.335Z,4.50
2023-07-18T03:34:37.165Z,4.37
2023-07-18T03:39:44.283Z,4.63
2023-07-18T03:44:51.478Z,5.00
2023-07-18T03:49:58.342Z,5.00
2023-07-18T03:55:06.657Z,5.00
2023-07-18T04:00:19.428Z,5.03
2023-07-18T04:10:34.261Z,5.20
2023-07-18T04:15:41.086Z,4.93
2023-07-18T04:20:48.040Z,5.17
2023-07-18T04:26:04.303Z,4.50
2023-07-18T04:31:11.194Z,4.70
2023-07-18T04:36:18.030Z,4.60
2023-07-18T04:41:30.752Z,4.30
2023-07-18T04:46:35.008Z,4.67
2023-07-18T04:51:42.153Z,4.80
2023-07-18T04:56:49.001Z,4.93
2023-07-18T05:01:56.954Z,4.50
2023-07-18T05:07:04.335Z,4.40
2023-07-18T05:12:11.753Z,4.83
2023-07-18T05:17:18.765Z,4.40
2023-07-18T05:22:25.949Z,4.70
2023-07-18T05:27:33.196Z,4.90
2023-07-18T05:32:40.447Z,4.53
2023-07-18T05:37:48.159Z,4.50
2023-07-18T05:42:55.815Z,4.60
2023-07-18T05:48:02.886Z,4.40
2023-07-18T05:53:09.890Z,4.50
2023-07-18T05:58:17.325Z,4.53
2023-07-18T06:03:25.317Z,4.70
2023-07-18T06:08:32.910Z,4.67
2023-07-18T06:13:40.667Z,5.10
2023-07-18T06:18:47.929Z,4.90
2023-07-18T06:24:01.673Z,4.27
2023-07-18T06:29:04.697Z,4.60
2023-07-18T06:34:11.766Z,4.80
2023-07-18T06:39:19.793Z,4.70
2023-07-18T06:44:26.588Z,4.30
2023-07-18T06:49:33.625Z,4.43
2023-07-18T06:54:40.740Z,5.13
2023-07-18T06:59:47.802Z,4.97
2023-07-18T07:04:54.809Z,4.90
2023-07-18T07:10:01.832Z,5.07
2023-07-18T07:15:11.794Z,4.90
2023-07-18T07:20:20.492Z,5.07
2023-07-18T07:25:33.155Z,5.53
2023-07-18T07:30:39.926Z,4.92
2023-07-18T07:35:47.355Z,4.60
2023-07-18T07:40:54.720Z,4.90
2023-07-18T07:46:03.231Z,5.03
2023-07-18T07:51:10.682Z,5.50
2023-07-18T07:56:18.035Z,4.47
2023-07-18T08:01:24.998Z,4.67
2023-07-18T08:06:32.131Z,5.13
2023-07-18T08:11:39.161Z,5.33
2023-07-18T08:16:46.644Z,5.50
2023-07-18T08:21:53.947Z,5.10
2023-07-18T08:27:01.508Z,5.60
2023-07-18T08:32:09.622Z,6.60
2023-07-18T08:37:17.154Z,5.63
2023-07-18T08:42:29.767Z,6.00
2023-07-18T08:47:37.160Z,5.60
2023-07-18T08:52:44.925Z,5.13
2023-07-18T08:57:52.287Z,5.53
2023-07-18T09:02:59.347Z,5.43
2023-07-18T09:08:08.700Z,5.67
2023-07-18T09:13:15.582Z,5.33
2023-07-18T09:18:22.545Z,4.80
2023-07-18T09:23:29.660Z,6.00
2023-07-18T09:28:36.820Z,5.57
2023-07-18T09:33:44.130Z,5.77
2023-07-18T09:38:53.373Z,5.20
2023-07-18T09:44:27.619Z,5.33
2023-07-18T09:49:14.801Z,5.23
2023-07-18T09:54:22.674Z,5.90
2023-07-18T09:59:32.485Z,5.57
2023-07-18T10:04:40.761Z,5.07
2023-07-18T10:09:49.156Z,5.53
2023-07-18T10:15:01.952Z,5.70
2023-07-18T10:20:21.957Z,5.63
2023-07-18T10:25:34.046Z,5.50
2023-07-18T10:30:43.882Z,5.37
2023-07-18T10:35:52.384Z,5.43
2023-07-18T10:40:59.249Z,5.80
2023-07-18T10:46:08.584Z,5.50
2023-07-18T10:51:15.669Z,5.43
2023-07-18T10:56:25.151Z,5.20
2023-07-18T11:01:32.150Z,5.73
2023-07-18T11:06:39.256Z,5.90
2023-07-18T11:11:46.038Z,6.03
2023-07-18T11:16:53.618Z,5.80
2023-07-18T11:22:00.599Z,6.87
2023-07-18T11:27:30.242Z,6.53
2023-07-18T11:32:43.065Z,6.07
2023-07-18T11:37:54.761Z,6.50
2023-07-18T11:43:02.073Z,6.20
2023-07-18T11:48:10.814Z,6.73
2023-07-18T11:53:22.183Z,6.77
2023-07-18T11:58:29.613Z,6.77
2023-07-18T12:03:37.869Z,6.73
2023-07-18T12:08:44.994Z,7.30
2023-07-18T12:13:52.136Z,6.60
2023-07-18T12:18:59.171Z,7.30
2023-07-18T12:24:06.387Z,7.67
2023-07-18T12:29:15.541Z,7.03
2023-07-18T12:34:23.352Z,7.77
2023-07-18T12:39:30.226Z,7.40
2023-07-18T12:44:50.680Z,7.37
2023-07-18T12:49:57.712Z,7.43
2023-07-18T12:55:05.367Z,7.40
2023-07-18T13:00:13.794Z,8.27
2023-07-18T13:05:22.145Z,8.00
2023-07-18T13:10:29.019Z,7.47
2023-07-18T13:15:36.296Z,7.77
2023-07-18T13:20:43.702Z,8.17
2023-07-18T13:25:51.025Z,7.53
2023-07-18T13:30:59.099Z,7.70
2023-07-18T13:36:07.057Z,7.70
2023-07-18T13:41:15.996Z,7.90
2023-07-18T13:46:23.482Z,7.47
2023-07-18T13:51:32.556Z,7.47
2023-07-18T13:56:39.577Z,7.67
2023-07-18T14:01:46.788Z,7.80
2023-07-18T14:06:53.965Z,7.80
2023-07-18T14:12:01.669Z,7.60
2023-07-18T14:17:08.580Z,6.77
2023-07-18T14:22:17.186Z,7.93
2023-07-18T14:27:24.108Z,7.10
2023-07-18T14:32:32.587Z,7.97
2023-07-18T14:37:40.212Z,7.03
2023-07-18T14:42:48.789Z,7.40
2023-07-18T14:47:56.972Z,7.20
2023-07-18T14:53:04.137Z,7.47
2023-07-18T14:58:11.541Z,6.93
2023-07-18T15:03:18.947Z,7.33
2023-07-18T15:08:26.317Z,7.53
2023-07-18T15:13:34.609Z,7.37
2023-07-18T15:18:41.564Z,7.70
2023-07-18T15:23:48.609Z,7.50
2023-07-18T15:28:55.707Z,7.53
2023-07-18T15:34:03.189Z,8.50
2023-07-18T15:39:10.603Z,7.80
2023-07-18T15:44:17.872Z,7.70
2023-07-18T15:49:25.035Z,8.83
2023-07-18T16:00:19.593Z,6.00
2023-07-18T16:05:26.494Z,3.03
2023-07-18T16:10:33.365Z,3.83
2023-07-18T16:15:40.329Z,3.93
2023-07-18T16:20:47.117Z,3.97
2023-07-18T16:25:53.916Z,4.30
2023-07-18T16:31:00.743Z,5.20
2023-07-18T16:36:08.042Z,4.90
2023-07-18T16:41:14.978Z,4.70
2023-07-18T16:46:23.016Z,4.13
2023-07-18T16:51:30.213Z,4.20
2023-07-18T16:56:37.087Z,4.63
2023-07-18T17:01:44.594Z,4.83
2023-07-18T17:06:52.603Z,5.03
2023-07-18T17:11:59.410Z,4.17
2023-07-18T17:17:06.465Z,3.80
2023-07-18T17:22:13.773Z,3.17
2023-07-18T17:27:21.323Z,2.80
2023-07-18T17:32:28.562Z,2.53
2023-07-18T17:37:35.460Z,2.53
2023-07-18T17:42:47.012Z,2.20
2023-07-18T17:47:54.876Z,2.33
2023-07-18T17:53:04.006Z,3.20
2023-07-18T17:58:10.765Z,2.53
2023-07-18T18:03:17.757Z,3.50
2023-07-18T18:08:24.558Z,3.40
2023-07-18T18:13:31.414Z,3.30
2023-07-18T18:18:38.418Z,3.00
2023-07-18T18:23:45.295Z,3.40
2023-07-18T18:28:53.381Z,3.87
2023-07-18T18:34:04.134Z,4.10
2023-07-18T18:39:11.470Z,3.37
2023-07-18T18:44:18.300Z,3.20
2023-07-18T18:49:27.598Z,3.20
2023-07-18T18:54:33.642Z,3.40
2023-07-18T18:59:41.151Z,3.77
2023-07-18T19:04:53.260Z,3.30
2023-07-18T19:10:00.177Z,4.10
2023-07-18T19:15:07.917Z,3.60
2023-07-18T19:20:15.893Z,3.40
2023-07-18T19:25:24.768Z,3.90
2023-07-18T19:30:31.724Z,3.70
2023-07-18T19:35:38.936Z,2.93
2023-07-18T19:40:45.845Z,3.20
2023-07-18T19:45:53.264Z,3.40
2023-07-18T19:51:00.291Z,3.00
2023-07-18T19:56:08.141Z,3.00
2023-07-18T20:01:15.894Z,3.40
2023-07-18T20:06:22.986Z,2.87
2023-07-18T20:11:29.990Z,2.97
2023-07-18T20:16:37.433Z,3.20
2023-07-18T20:21:44.286Z,2.93
2023-07-18T20:26:51.735Z,3.10
2023-07-18T20:31:58.748Z,3.00
2023-07-18T20:37:07.728Z,3.03
2023-07-18T20:42:14.927Z,2.90
2023-07-18T20:47:22.231Z,3.00
2023-07-18T20:52:29.248Z,2.80
2023-07-18T20:57:36.385Z,2.90
2023-07-18T21:02:43.881Z,2.90
2023-07-18T21:07:50.927Z,2.70
2023-07-18T21:12:57.860Z,2.87
2023-07-18T21:18:04.794Z,2.93
2023-07-18T21:23:11.837Z,3.10
2023-07-18T21:28:19.193Z,3.30
2023-07-18T21:33:26.166Z,2.80
2023-07-18T21:38:33.708Z,2.80
2023-07-18T21:43:40.690Z,2.77
2023-07-18T21:48:47.707Z,2.93
2023-07-18T21:53:54.599Z,2.80
2023-07-18T21:59:02.372Z,3.20
2023-07-18T22:04:09.632Z,2.60
2023-07-18T22:09:16.569Z,3.13
2023-07-18T22:14:24.719Z,3.00
2023-07-18T22:19:31.957Z,3.30
2023-07-18T22:24:38.896Z,2.93
2023-07-18T22:29:46.441Z,2.93
2023-07-18T22:34:53.803Z,2.90
2023-07-18T22:40:00.781Z,2.83
2023-07-18T22:45:08.688Z,2.80
2023-07-18T22:50:15.609Z,2.77
2023-07-18T22:55:22.416Z,2.40
2023-07-18T23:00:29.326Z,2.67
2023-07-18T23:05:36.133Z,2.97
2023-07-18T23:10:42.997Z,2.90
2023-07-18T23:15:49.736Z,2.90
2023-07-18T23:20:56.554Z,2.80
2023-07-18T23:26:03.398Z,2.90
2023-07-18T23:31:10.408Z,2.40
2023-07-18T23:36:17.182Z,3.07
2023-07-18T23:41:24.436Z,2.63
2023-07-18T23:46:33.074Z,2.60
2023-07-18T23:51:40.042Z,2.80
2023-07-18T23:56:47.022Z,2.90
